createdAt,value
2018-05-21T00:01:00.734Z,99.90
2018-05-21T00:03:28.261Z,99.90
2018-05-21T00:05:55.783Z,99.90
2018-05-21T00:08:24.069Z,99.90
2018-05-21T00:10:51.604Z,99.90
2018-05-21T00:13:19.124Z,99.90
2018-05-21T00:15:46.653Z,99.90
2018-05-21T00:18:14.183Z,99.90
2018-05-21T00:20:41.713Z,99.90
2018-05-21T00:23:09.239Z,99.90
2018-05-21T00:25:36.751Z,99.90
2018-05-21T00:28:04.284Z,99.90
2018-05-21T00:30:31.801Z,99.90
2018-05-21T00:32:59.327Z,99.90
2018-05-21T00:35:26.848Z,99.90
2018-05-21T00:37:54.368Z,99.90
2018-05-21T00:40:22.668Z,99.90
2018-05-21T00:42:50.195Z,99.90
2018-05-21T00:45:18.501Z,99.90
2018-05-21T00:47:46.023Z,99.90
2018-05-21T00:50:13.549Z,99.90
2018-05-21T00:52:41.071Z,99.90
2018-05-21T00:55:20.395Z,99.90
2018-05-21T00:57:48.685Z,99.90
2018-05-21T01:00:16.229Z,99.90
2018-05-21T01:02:44.516Z,99.90
2018-05-21T01:05:12.043Z,99.90
2018-05-21T01:07:39.641Z,99.90
2018-05-21T01:10:07.100Z,99.90
2018-05-21T01:12:34.650Z,99.90
2018-05-21T01:15:02.187Z,99.90
2018-05-21T01:17:30.481Z,99.90
2018-05-21T01:19:58.023Z,99.90
2018-05-21T01:22:26.305Z,99.90
2018-05-21T01:24:54.620Z,99.90
2018-05-21T01:27:22.123Z,99.90
2018-05-21T01:29:49.639Z,99.90
2018-05-21T01:32:17.181Z,99.90
2018-05-21T01:34:44.692Z,99.90
2018-05-21T01:37:12.236Z,99.90
2018-05-21T01:39:39.753Z,99.90
2018-05-21T01:42:07.290Z,99.90
2018-05-21T01:44:35.563Z,99.90
2018-05-21T01:47:03.849Z,99.90
2018-05-21T01:49:32.135Z,99.90
2018-05-21T01:51:59.644Z,99.90
2018-05-21T01:54:27.186Z,99.90
2018-05-21T01:56:54.692Z,99.90
2018-05-21T01:59:22.980Z,99.90
2018-05-21T02:01:51.285Z,99.90
2018-05-21T02:04:18.807Z,99.90
2018-05-21T02:06:47.107Z,99.90
2018-05-21T02:09:14.611Z,99.90
2018-05-21T02:11:42.125Z,99.90
2018-05-21T02:14:09.657Z,99.90
2018-05-21T02:16:37.943Z,99.90
2018-05-21T02:19:06.259Z,99.90
2018-05-21T02:21:33.764Z,99.90
2018-05-21T02:24:01.275Z,99.90
2018-05-21T02:26:28.796Z,99.90
2018-05-21T02:28:57.082Z,99.90
2018-05-21T02:31:24.611Z,99.90
2018-05-21T02:33:52.128Z,99.90
2018-05-21T02:36:19.636Z,99.90
2018-05-21T02:38:47.942Z,99.90
2018-05-21T02:41:15.517Z,99.90
2018-05-21T02:43:42.989Z,99.90
2018-05-21T02:46:10.506Z,99.90
2018-05-21T02:48:38.811Z,99.90
2018-05-21T02:51:06.317Z,99.90
2018-05-21T02:53:33.843Z,99.90
2018-05-21T02:56:01.358Z,99.90
2018-05-21T02:58:28.871Z,99.90
2018-05-21T03:00:56.417Z,99.90
2018-05-21T03:03:23.925Z,99.90
2018-05-21T03:05:52.209Z,99.90
2018-05-21T03:08:20.505Z,99.90
2018-05-21T03:10:48.018Z,99.90
2018-05-21T03:13:15.891Z,99.90
2018-05-21T03:15:43.407Z,99.90
2018-05-21T03:18:10.938Z,99.90
2018-05-21T03:20:38.444Z,99.90
2018-05-21T03:23:05.957Z,99.90
2018-05-21T03:25:33.495Z,99.90
2018-05-21T03:28:01.769Z,99.90
2018-05-21T03:30:30.079Z,99.90
2018-05-21T03:32:57.609Z,99.90
2018-05-21T03:35:25.890Z,99.90
2018-05-21T03:37:53.789Z,99.90
2018-05-21T03:40:21.305Z,99.90
2018-05-21T03:42:49.597Z,99.90
2018-05-21T03:45:17.108Z,99.90
2018-05-21T03:47:44.610Z,99.90
2018-05-21T03:50:12.141Z,99.90
2018-05-21T03:52:39.646Z,99.90
2018-05-21T03:55:07.253Z,99.90
2018-05-21T03:57:35.458Z,99.90
2018-05-21T04:00:15.701Z,99.90
2018-05-21T04:02:54.986Z,99.90
2018-05-21T04:05:22.496Z,99.90
2018-05-21T04:07:50.777Z,99.90
2018-05-21T04:10:19.081Z,99.90
2018-05-21T04:12:46.601Z,99.90
2018-05-21T04:15:14.104Z,99.90
2018-05-21T04:17:41.642Z,99.90
2018-05-21T04:20:09.152Z,99.90
2018-05-21T04:22:36.676Z,99.90
2018-05-21T04:25:04.173Z,99.90
2018-05-21T04:27:32.454Z,99.90
2018-05-21T04:29:59.982Z,99.90
2018-05-21T04:32:27.491Z,99.90
2018-05-21T04:34:55.792Z,99.90
2018-05-21T04:37:23.291Z,99.90
2018-05-21T04:39:50.803Z,99.90
2018-05-21T04:42:19.092Z,99.90
2018-05-21T04:44:47.024Z,99.90
2018-05-21T04:47:14.557Z,99.90
2018-05-21T04:49:42.056Z,99.90
2018-05-21T04:52:10.338Z,99.90
2018-05-21T04:54:38.615Z,99.90
2018-05-21T04:57:06.889Z,99.90
2018-05-21T04:59:35.200Z,99.90
2018-05-21T05:02:02.709Z,99.90
2018-05-21T05:04:30.208Z,99.90
2018-05-21T05:06:57.724Z,99.90
2018-05-21T05:09:25.227Z,99.90
2018-05-21T05:11:52.770Z,99.90
2018-05-21T05:14:20.277Z,99.90
2018-05-21T05:16:47.789Z,99.90
2018-05-21T05:19:15.322Z,99.90
2018-05-21T05:21:44.328Z,99.90
2018-05-21T05:24:12.633Z,99.90
2018-05-21T05:26:40.173Z,99.90
2018-05-21T05:29:08.432Z,99.90
2018-05-21T05:31:36.719Z,99.90
2018-05-21T05:34:05.007Z,99.90
2018-05-21T05:36:32.558Z,99.90
2018-05-21T05:39:00.846Z,99.90
2018-05-21T05:41:28.355Z,99.90
2018-05-21T05:43:55.872Z,99.90
2018-05-21T05:46:23.371Z,99.90
2018-05-21T05:48:50.898Z,99.90
2018-05-21T05:51:18.419Z,99.90
2018-05-21T05:53:46.688Z,99.90
2018-05-21T05:56:14.994Z,99.90
2018-05-21T05:58:42.499Z,99.90
2018-05-21T06:01:10.038Z,99.90
2018-05-21T06:03:37.640Z,99.90
2018-05-21T06:06:05.075Z,99.90
2018-05-21T06:08:32.581Z,99.90
2018-05-21T06:11:00.186Z,99.90
2018-05-21T06:13:27.649Z,99.90
2018-05-21T06:15:55.156Z,99.90
2018-05-21T06:18:22.689Z,99.90
2018-05-21T06:20:50.195Z,99.90
2018-05-21T06:23:17.727Z,99.90
2018-05-21T06:25:45.297Z,99.90
2018-05-21T06:28:12.776Z,99.90
2018-05-21T06:30:40.304Z,99.90
2018-05-21T06:33:07.820Z,99.90
2018-05-21T06:35:35.356Z,99.90
2018-05-21T06:38:02.869Z,99.90
2018-05-21T06:40:31.151Z,99.90
2018-05-21T06:42:58.689Z,99.90
2018-05-21T06:45:26.192Z,99.90
2018-05-21T06:47:53.709Z,99.90
2018-05-21T06:50:21.216Z,99.90
2018-05-21T06:52:48.728Z,99.90
2018-05-21T06:55:16.233Z,99.90
2018-05-21T06:57:43.760Z,99.90
2018-05-21T07:00:12.024Z,99.90
2018-05-21T07:02:40.287Z,99.90
2018-05-21T07:05:07.813Z,99.90
2018-05-21T07:07:35.335Z,99.90
2018-05-21T07:10:03.628Z,99.90
2018-05-21T07:12:31.139Z,99.90
2018-05-21T07:14:58.655Z,99.90
2018-05-21T07:17:26.163Z,99.90
2018-05-21T07:19:53.673Z,99.90
2018-05-21T07:22:21.194Z,99.90
2018-05-21T07:24:49.482Z,99.90
2018-05-21T07:27:17.786Z,99.90
2018-05-21T07:29:46.058Z,99.90
2018-05-21T07:32:13.580Z,99.90
2018-05-21T07:34:41.850Z,99.90
2018-05-21T07:37:10.119Z,99.90
2018-05-21T07:39:37.650Z,99.90
2018-05-21T07:42:05.162Z,99.90
2018-05-21T07:44:33.460Z,99.90
2018-05-21T07:47:00.970Z,99.90
2018-05-21T07:49:28.472Z,99.90
2018-05-21T07:51:55.996Z,99.90
2018-05-21T07:54:24.269Z,99.90
2018-05-21T07:56:51.793Z,99.90
2018-05-21T07:59:19.285Z,99.90
2018-05-21T08:01:47.571Z,99.90
2018-05-21T08:04:15.851Z,99.90
2018-05-21T08:06:44.118Z,99.90
2018-05-21T08:09:12.418Z,99.90
2018-05-21T08:11:39.933Z,99.90
2018-05-21T08:14:07.461Z,99.90
2018-05-21T08:16:35.747Z,99.90
2018-05-21T08:19:03.284Z,99.90
2018-05-21T08:21:31.566Z,99.90
2018-05-21T08:23:59.850Z,99.90
2018-05-21T08:26:27.368Z,99.90
2018-05-21T08:28:55.641Z,99.90
2018-05-21T08:31:23.939Z,99.90
2018-05-21T08:33:51.450Z,99.90
2018-05-21T08:36:18.953Z,99.90
2018-05-21T08:38:46.468Z,99.90
2018-05-21T08:41:13.981Z,99.90
2018-05-21T08:43:41.504Z,99.90
2018-05-21T08:46:09.769Z,99.90
2018-05-21T08:48:38.149Z,99.90
2018-05-21T08:51:05.606Z,99.90
2018-05-21T08:53:33.112Z,99.90
2018-05-21T08:56:00.663Z,99.90
2018-05-21T08:58:28.176Z,99.90
2018-05-21T09:00:55.689Z,99.90
2018-05-21T09:03:23.202Z,99.90
2018-05-21T09:05:50.728Z,99.90
2018-05-21T09:08:18.996Z,99.90
2018-05-21T09:10:46.497Z,99.90
2018-05-21T09:13:14.016Z,99.90
2018-05-21T09:15:41.517Z,99.00
2018-05-21T09:18:09.808Z,99.90
2018-05-21T09:20:38.081Z,99.90
2018-05-21T09:23:06.356Z,99.90
2018-05-21T09:25:34.654Z,99.90
2018-05-21T09:28:02.149Z,99.90
2018-05-21T09:30:29.691Z,99.90
2018-05-21T09:32:57.187Z,99.90
2018-05-21T09:35:24.686Z,99.20
2018-05-21T09:37:52.204Z,99.80
2018-05-21T09:40:19.721Z,99.90
2018-05-21T09:42:47.248Z,99.20
2018-05-21T09:45:14.779Z,99.90
2018-05-21T09:47:42.281Z,99.20
2018-05-21T09:50:09.800Z,99.90
2018-05-21T09:52:37.324Z,99.80
2018-05-21T09:55:04.857Z,98.00
2018-05-21T09:57:32.370Z,97.40
2018-05-21T09:59:59.872Z,99.60
2018-05-21T10:02:27.388Z,96.50
2018-05-21T10:04:54.888Z,98.10
2018-05-21T10:07:22.424Z,92.30
2018-05-21T10:09:50.705Z,95.00
2018-05-21T10:12:18.967Z,98.00
2018-05-21T10:14:46.490Z,97.90
2018-05-21T10:17:14.003Z,83.40
2018-05-21T10:19:42.296Z,90.70
2018-05-21T10:22:09.791Z,90.90
2018-05-21T10:24:37.296Z,91.20
2018-05-21T10:27:05.580Z,89.20
2018-05-21T10:29:33.075Z,89.40
2018-05-21T10:32:00.610Z,84.50
2018-05-21T10:34:28.126Z,90.60
2018-05-21T10:36:55.650Z,81.80
2018-05-21T10:39:23.145Z,79.90
2018-05-21T10:41:50.678Z,85.90
2018-05-21T10:44:18.192Z,82.50
2018-05-21T10:46:45.701Z,73.70
2018-05-21T10:49:13.231Z,69.00
2018-05-21T10:51:40.727Z,68.30
2018-05-21T10:54:08.252Z,69.40
2018-05-21T10:56:35.753Z,70.10
2018-05-21T10:59:03.256Z,61.30
2018-05-21T11:01:30.773Z,64.10
2018-05-21T11:03:59.051Z,69.70
2018-05-21T11:06:27.350Z,72.00
2018-05-21T11:08:54.852Z,71.90
2018-05-21T11:11:22.393Z,71.40
2018-05-21T11:13:49.905Z,62.60
2018-05-21T11:16:18.176Z,64.50
2018-05-21T11:18:45.696Z,64.50
2018-05-21T11:21:13.196Z,70.70
2018-05-21T11:23:41.486Z,65.00
2018-05-21T11:26:09.768Z,64.40
2018-05-21T11:28:38.051Z,66.50
2018-05-21T11:31:05.568Z,66.50
2018-05-21T11:33:33.072Z,60.30
2018-05-21T11:36:00.605Z,64.90
2018-05-21T11:38:28.894Z,69.90
2018-05-21T11:40:57.169Z,67.50
2018-05-21T11:43:25.462Z,64.10
2018-05-21T11:45:52.965Z,64.10
2018-05-21T11:48:20.493Z,69.90
2018-05-21T11:50:48.017Z,70.10
2018-05-21T11:53:15.565Z,66.30
2018-05-21T11:55:43.074Z,65.90
2018-05-21T11:58:10.585Z,70.50
2018-05-21T12:00:38.881Z,59.00
2018-05-21T12:03:06.375Z,59.00
2018-05-21T12:05:33.895Z,55.60
2018-05-21T12:08:02.165Z,55.90
2018-05-21T12:10:30.435Z,61.80
2018-05-21T12:12:58.726Z,61.60
2018-05-21T12:15:26.237Z,61.70
2018-05-21T12:17:53.766Z,59.50
2018-05-21T12:20:21.277Z,58.90
2018-05-21T12:22:48.800Z,52.70
2018-05-21T12:25:17.089Z,53.90
2018-05-21T12:27:44.605Z,53.90
2018-05-21T12:30:12.124Z,57.40
2018-05-21T12:32:39.630Z,54.00
2018-05-21T12:35:07.144Z,50.30
2018-05-21T12:37:34.668Z,47.10
2018-05-21T12:40:02.163Z,55.40
2018-05-21T12:42:30.473Z,53.80
2018-05-21T12:44:57.971Z,54.40
2018-05-21T12:47:25.486Z,59.20
2018-05-21T12:49:53.004Z,61.20
2018-05-21T12:52:20.518Z,51.80
2018-05-21T12:54:48.080Z,51.30
2018-05-21T12:57:16.320Z,58.60
2018-05-21T12:59:44.620Z,51.30
2018-05-21T13:02:12.134Z,51.20
2018-05-21T13:04:39.638Z,57.90
2018-05-21T13:07:07.171Z,59.30
2018-05-21T13:09:35.450Z,55.30
2018-05-21T13:12:03.760Z,57.30
2018-05-21T13:14:31.265Z,57.20
2018-05-21T13:16:58.767Z,58.40
2018-05-21T13:19:26.294Z,56.00
2018-05-21T13:21:54.567Z,58.00
2018-05-21T13:24:22.957Z,57.30
2018-05-21T13:26:50.381Z,57.70
2018-05-21T13:29:17.907Z,59.90
2018-05-21T13:31:45.404Z,59.00
2018-05-21T13:34:12.904Z,61.90
2018-05-21T13:36:40.441Z,64.20
2018-05-21T13:39:08.718Z,63.40
2018-05-21T13:41:37.008Z,62.60
2018-05-21T13:44:04.532Z,62.60
2018-05-21T13:46:32.040Z,61.90
2018-05-21T13:48:59.560Z,60.90
2018-05-21T13:51:27.084Z,62.80
2018-05-21T13:53:54.616Z,62.80
2018-05-21T13:56:22.125Z,61.10
2018-05-21T13:58:49.640Z,60.40
2018-05-21T14:01:17.166Z,59.00
2018-05-21T14:03:45.445Z,59.70
2018-05-21T14:06:13.767Z,61.10
2018-05-21T14:08:41.285Z,61.10
2018-05-21T14:11:09.570Z,58.10
2018-05-21T14:13:37.107Z,58.80
2018-05-21T14:16:05.385Z,63.90
2018-05-21T14:18:33.677Z,61.00
2018-05-21T14:21:01.959Z,66.60
2018-05-21T14:23:29.485Z,66.50
2018-05-21T14:25:57.008Z,64.30
2018-05-21T14:28:24.525Z,66.30
2018-05-21T14:30:52.825Z,65.70
2018-05-21T14:33:20.423Z,65.70
2018-05-21T14:35:47.874Z,69.50
2018-05-21T14:38:18.341Z,70.50
2018-05-21T14:40:46.617Z,61.50
2018-05-21T14:43:14.899Z,58.60
2018-05-21T14:45:43.190Z,61.60
2018-05-21T14:48:10.727Z,61.60
2018-05-21T14:50:38.999Z,64.60
2018-05-21T14:53:07.282Z,58.70
2018-05-21T14:55:35.582Z,60.10
2018-05-21T14:58:03.101Z,60.10
2018-05-21T15:00:30.641Z,56.20
2018-05-21T15:02:58.162Z,56.80
2018-05-21T15:05:25.683Z,60.40
2018-05-21T15:07:53.206Z,62.60
2018-05-21T15:10:20.726Z,60.70
2018-05-21T15:12:48.262Z,63.00
2018-05-21T15:15:16.527Z,63.30
2018-05-21T15:17:45.536Z,65.00
2018-05-21T15:20:13.820Z,64.60
2018-05-21T15:22:42.103Z,65.60
2018-05-21T15:25:10.411Z,66.60
2018-05-21T15:27:37.909Z,66.60
2018-05-21T15:30:05.427Z,70.00
2018-05-21T15:32:32.950Z,67.40
2018-05-21T15:35:01.216Z,61.00
2018-05-21T15:37:29.518Z,60.10
2018-05-21T15:39:57.028Z,60.10
2018-05-21T15:42:24.537Z,65.70
2018-05-21T15:44:52.066Z,64.10
2018-05-21T15:47:20.350Z,64.90
2018-05-21T15:49:48.653Z,70.90
2018-05-21T15:52:16.163Z,70.90
2018-05-21T15:54:43.683Z,72.30
2018-05-21T15:57:11.215Z,73.60
2018-05-21T15:59:38.726Z,76.20
2018-05-21T16:02:06.279Z,74.00
2018-05-21T16:04:33.795Z,76.40
2018-05-21T16:07:01.314Z,73.00
2018-05-21T16:09:28.845Z,71.70
2018-05-21T16:11:56.357Z,69.40
2018-05-21T16:14:24.653Z,63.80
2018-05-21T16:16:52.164Z,63.90
2018-05-21T16:19:19.675Z,65.00
2018-05-21T16:21:47.192Z,64.10
2018-05-21T16:24:14.700Z,64.40
2018-05-21T16:26:42.229Z,65.00
2018-05-21T16:29:10.498Z,65.70
2018-05-21T16:31:38.783Z,68.70
2018-05-21T16:34:07.082Z,66.20
2018-05-21T16:36:35.347Z,66.20
2018-05-21T16:39:02.897Z,66.20
2018-05-21T16:41:31.173Z,67.50
2018-05-21T16:43:58.696Z,67.50
2018-05-21T16:46:26.219Z,65.80
2018-05-21T16:48:53.730Z,64.30
2018-05-21T16:51:21.255Z,66.60
2018-05-21T16:53:48.864Z,69.30
2018-05-21T16:56:16.289Z,69.80
2018-05-21T16:58:43.820Z,70.90
2018-05-21T17:01:11.330Z,70.50
2018-05-21T17:03:39.626Z,71.80
2018-05-21T17:06:07.141Z,71.80
2018-05-21T17:08:34.645Z,72.30
2018-05-21T17:11:02.242Z,68.70
2018-05-21T17:13:29.724Z,68.60
2018-05-21T17:15:57.264Z,70.80
2018-05-21T17:18:24.764Z,71.30
2018-05-21T17:20:53.035Z,70.30
2018-05-21T17:23:21.334Z,71.70
2018-05-21T17:25:48.850Z,71.70
2018-05-21T17:28:16.379Z,70.90
2018-05-21T17:30:43.876Z,72.10
2018-05-21T17:33:11.384Z,72.90
2018-05-21T17:35:38.959Z,73.70
2018-05-21T17:38:06.436Z,75.00
2018-05-21T17:40:33.957Z,76.00
2018-05-21T17:43:01.496Z,76.20
2018-05-21T17:45:29.030Z,76.20
2018-05-21T17:47:56.531Z,76.30
2018-05-21T17:50:24.116Z,78.50
2018-05-21T17:52:51.588Z,77.80
2018-05-21T17:55:19.134Z,79.00
2018-05-21T17:57:46.748Z,79.60
2018-05-21T18:00:14.213Z,80.00
2018-05-21T18:02:41.751Z,80.50
2018-05-21T18:05:10.017Z,82.10
2018-05-21T18:07:37.520Z,82.10
2018-05-21T18:10:05.056Z,82.90
2018-05-21T18:12:33.335Z,85.00
2018-05-21T18:15:01.642Z,86.40
2018-05-21T18:17:29.154Z,86.40
2018-05-21T18:19:57.429Z,88.50
2018-05-21T18:22:25.727Z,88.80
2018-05-21T18:24:54.082Z,88.70
2018-05-21T18:27:22.371Z,90.40
2018-05-21T18:29:50.635Z,90.40
2018-05-21T18:32:18.908Z,90.20
2018-05-21T18:34:47.210Z,91.30
2018-05-21T18:37:15.476Z,92.30
2018-05-21T18:39:43.778Z,92.40
2018-05-21T18:42:11.377Z,92.40
2018-05-21T18:44:39.568Z,93.20
2018-05-21T18:47:07.088Z,93.20
2018-05-21T18:49:34.602Z,93.50
2018-05-21T18:52:02.900Z,95.00
2018-05-21T18:54:30.423Z,95.00
2018-05-21T18:56:57.920Z,95.30
2018-05-21T18:59:25.471Z,96.10
2018-05-21T19:01:52.982Z,96.10
2018-05-21T19:04:20.526Z,96.50
2018-05-21T19:06:48.039Z,97.50
2018-05-21T19:09:16.317Z,98.40
2018-05-21T19:11:44.599Z,99.10
2018-05-21T19:14:12.110Z,99.10
2018-05-21T19:16:39.636Z,98.30
2018-05-21T19:19:07.138Z,98.80
2018-05-21T19:21:34.653Z,99.30
2018-05-21T19:24:02.175Z,99.80
2018-05-21T19:26:30.450Z,99.40
2018-05-21T19:28:58.750Z,99.70
2018-05-21T19:31:26.256Z,99.70
2018-05-21T19:33:53.757Z,99.80
2018-05-21T19:36:22.049Z,99.90
2018-05-21T19:38:49.548Z,99.90
2018-05-21T19:41:17.083Z,99.90
2018-05-21T19:43:44.590Z,99.90
2018-05-21T19:46:12.860Z,99.90
2018-05-21T19:48:40.378Z,99.90
2018-05-21T19:51:07.877Z,99.90
2018-05-21T19:53:35.414Z,99.90
2018-05-21T19:56:02.914Z,99.90
2018-05-21T19:58:31.189Z,99.90
2018-05-21T20:00:59.495Z,99.90
2018-05-21T20:03:26.992Z,99.90
2018-05-21T20:05:54.523Z,99.90
2018-05-21T20:08:22.042Z,99.90
2018-05-21T20:10:50.314Z,99.90
2018-05-21T20:13:18.610Z,99.90
2018-05-21T20:15:46.124Z,99.90
2018-05-21T20:18:13.657Z,99.90
2018-05-21T20:20:42.881Z,99.90
2018-05-21T20:23:10.418Z,99.90
2018-05-21T20:25:37.915Z,99.90
2018-05-21T20:28:06.193Z,99.90
2018-05-21T20:30:34.486Z,99.90
2018-05-21T20:33:02.761Z,99.90
2018-05-21T20:35:31.067Z,99.90
2018-05-21T20:37:58.577Z,99.90
2018-05-21T20:40:26.858Z,99.90
2018-05-21T20:42:55.157Z,99.90
2018-05-21T20:45:22.697Z,99.90
2018-05-21T20:47:51.832Z,99.90
2018-05-21T20:50:19.345Z,99.90
2018-05-21T20:52:47.617Z,99.90
2018-05-21T20:55:15.147Z,99.90
2018-05-21T20:57:42.661Z,99.90
2018-05-21T21:00:10.194Z,99.90
2018-05-21T21:02:37.713Z,99.90
2018-05-21T21:05:05.209Z,99.90
2018-05-21T21:07:33.510Z,99.90
2018-05-21T21:10:01.778Z,99.90
2018-05-21T21:12:30.073Z,99.90
2018-05-21T21:14:57.580Z,99.90
2018-05-21T21:17:25.089Z,99.90
2018-05-21T21:19:52.603Z,99.90
2018-05-21T21:22:20.108Z,99.90
2018-05-21T21:24:47.645Z,99.90
2018-05-21T21:27:15.921Z,99.90
2018-05-21T21:29:44.203Z,99.90
2018-05-21T21:32:12.497Z,99.90
2018-05-21T21:34:40.006Z,99.90
2018-05-21T21:37:07.526Z,99.90
2018-05-21T21:39:35.028Z,99.90
2018-05-21T21:42:02.532Z,99.90
2018-05-21T21:44:30.140Z,99.90
2018-05-21T21:46:57.581Z,99.90
2018-05-21T21:49:25.093Z,99.90
2018-05-21T21:51:53.396Z,99.90
2018-05-21T21:54:20.907Z,99.90
2018-05-21T21:56:49.176Z,99.90
2018-05-21T21:59:16.696Z,99.90
2018-05-21T22:01:44.196Z,99.90
2018-05-21T22:04:11.714Z,99.90
2018-05-21T22:06:39.245Z,99.90
2018-05-21T22:09:06.764Z,99.90
2018-05-21T22:11:34.314Z,99.90
2018-05-21T22:14:01.824Z,99.90
2018-05-21T22:16:29.336Z,99.90
2018-05-21T22:18:56.872Z,99.90
2018-05-21T22:21:24.386Z,99.90
2018-05-21T22:23:52.685Z,99.90
2018-05-21T22:26:20.188Z,99.90
2018-05-21T22:28:47.706Z,99.90
2018-05-21T22:31:15.241Z,99.90
2018-05-21T22:33:43.509Z,99.90
2018-05-21T22:36:11.818Z,99.90
2018-05-21T22:38:39.335Z,99.90
2018-05-21T22:41:07.621Z,99.90
2018-05-21T22:43:35.922Z,99.90
2018-05-21T22:46:03.431Z,99.90
2018-05-21T22:48:30.956Z,99.90
2018-05-21T22:50:58.482Z,99.90
2018-05-21T22:53:25.985Z,99.90
2018-05-21T22:55:53.511Z,99.90
2018-05-21T22:58:21.039Z,99.90
2018-05-21T23:00:49.346Z,99.90
2018-05-21T23:03:16.869Z,99.90
2018-05-21T23:05:44.385Z,99.90
2018-05-21T23:08:11.911Z,99.90
2018-05-21T23:10:39.425Z,99.90
2018-05-21T23:13:06.933Z,99.90
2018-05-21T23:15:34.448Z,99.90
2018-05-21T23:18:01.954Z,99.90
2018-05-21T23:20:29.495Z,99.90
2018-05-21T23:22:57.780Z,99.90
2018-05-21T23:25:25.303Z,99.90
2018-05-21T23:27:52.828Z,99.90
2018-05-21T23:30:20.350Z,99.90
2018-05-21T23:32:48.659Z,99.90
2018-05-21T23:35:16.156Z,99.90
2018-05-21T23:37:43.660Z,99.90
2018-05-21T23:40:11.198Z,99.90
2018-05-21T23:42:39.482Z,99.90
2018-05-21T23:45:07.025Z,99.90
2018-05-21T23:47:35.306Z,99.90
2018-05-21T23:50:03.571Z,99.90
2018-05-21T23:52:31.095Z,99.90
2018-05-21T23:54:58.611Z,99.90
2018-05-21T23:57:26.145Z,99.90
2018-05-21T23:59:53.705Z,99.90
